Time;durP1;ratioP1;P1;durP2;ratioP2;P2;SDS_P1;SDS_P2;PMS_P1;PMS_P2;Temp;Humidity;BMP_temperature;BMP_pressure;BME280_temperature;BME280_humidity;BME280_pressure;Samples;Min_cycle;Max_cycle;Signal;HPM_P1;HPM_P2
2022/05/24 00:00:26;;;;;;;6.78;3.35;;;14.00;99.90;;;;;;5032433;28;20049;-81
2022/05/24 00:02:53;;;;;;;6.07;3.88;;;13.90;99.90;;;;;;5032810;28;20093;-82
2022/05/24 00:05:20;;;;;;;6.78;3.72;;;13.90;99.90;;;;;;5032649;28;20103;-84
2022/05/24 00:07:46;;;;;;;5.72;3.10;;;13.90;99.90;;;;;;5033282;28;20037;-84
2022/05/24 00:10:19;;;;;;;4.60;2.70;;;13.90;99.90;;;;;;5016343;28;20053;-84
2022/05/24 00:12:45;;;;;;;;;;;13.90;99.90;;;;;;5033756;28;20200;-85
2022/05/24 00:15:20;;;;;;;4.47;2.67;;;13.90;99.90;;;;;;5032889;28;19920;-84
2022/05/24 00:18:07;;;;;;;3.70;2.53;;;13.80;99.90;;;;;;5033212;28;20046;-81
2022/05/24 00:20:35;;;;;;;3.70;2.85;;;14.00;99.90;;;;;;5032904;28;20052;-86
2022/05/24 00:23:02;;;;;;;7.20;3.53;;;13.80;99.90;;;;;;5032588;28;20345;-85
2022/05/24 00:25:34;;;;;;;5.60;3.58;;;13.80;99.90;;;;;;5033565;28;20046;-85
2022/05/24 00:28:01;;;;;;;6.10;3.17;;;13.80;99.90;;;;;;5033048;28;20050;-81
2022/05/24 00:30:26;;;;;;;4.47;3.30;;;13.80;99.90;;;;;;5032368;28;20123;-82
2022/05/24 00:32:52;;;;;;;7.40;3.40;;;13.80;99.90;;;;;;5016196;28;20053;-81
2022/05/24 00:35:18;;;;;;;4.65;3.28;;;13.80;99.90;;;;;;5015952;28;20124;-81
2022/05/24 00:37:46;;;;;;;4.55;3.38;;;13.90;99.90;;;;;;5032521;28;20485;-83
2022/05/24 00:40:39;;;;;;;6.03;3.53;;;13.70;99.90;;;;;;5033205;28;20061;-81
2022/05/24 00:43:10;;;;;;;6.95;3.42;;;13.70;99.90;;;;;;5015905;28;20141;-82
2022/05/24 00:45:42;;;;;;;6.07;4.15;;;13.70;99.90;;;;;;5032290;28;20556;-80
2022/05/24 00:48:19;;;;;;;5.53;3.80;;;13.60;99.90;;;;;;5015874;28;20413;-82
2022/05/24 00:50:48;;;;;;;6.00;4.15;;;13.60;99.90;;;;;;5032870;28;20077;-84
2022/05/24 00:53:40;;;;;;;5.03;3.75;;;13.60;99.90;;;;;;5032227;28;20145;-83
2022/05/24 00:56:13;;;;;;;6.90;4.15;;;13.50;99.90;;;;;;5032183;28;20057;-81
2022/05/24 00:58:49;;;;;;;5.38;3.70;;;13.60;99.90;;;;;;5015761;28;20045;-82
2022/05/24 01:01:23;;;;;;;7.88;4.82;;;13.60;99.90;;;;;;5015381;28;20140;-85
2022/05/24 01:03:49;;;;;;;8.00;5.47;;;13.60;99.90;;;;;;5015923;28;20103;-80
2022/05/24 01:06:14;;;;;;;9.60;6.32;;;13.60;99.90;;;;;;4999597;28;20432;-82
2022/05/24 01:08:41;;;;;;;9.25;6.20;;;13.60;99.90;;;;;;5032047;28;20611;-83
2022/05/24 01:11:10;;;;;;;8.63;6.32;;;13.60;99.90;;;;;;5015652;28;20110;-83
2022/05/24 01:13:38;;;;;;;9.45;6.38;;;13.60;99.90;;;;;;5031444;28;20508;-83
2022/05/24 01:16:05;;;;;;;8.05;5.43;;;13.50;99.90;;;;;;5015958;28;20140;-83
2022/05/24 01:18:31;;;;;;;8.88;5.40;;;13.50;99.90;;;;;;5015461;28;20052;-82
2022/05/24 01:21:03;;;;;;;6.45;3.80;;;13.40;99.90;;;;;;5015776;28;20138;-78
2022/05/24 01:23:40;;;;;;;5.90;4.03;;;13.30;99.90;;;;;;5033186;28;20078;-78
2022/05/24 01:26:34;;;;;;;4.40;3.53;;;13.30;99.90;;;;;;5019779;28;20056;-77
2022/05/24 01:29:03;;;;;;;5.68;3.10;;;13.30;99.90;;;;;;5037169;28;20128;-78
2022/05/24 01:37:00;;;;;;;8.82;4.68;;;13.20;99.90;;;;;;5021262;28;20485;-77
2022/05/24 01:39:26;;;;;;;7.15;4.95;;;13.10;99.90;;;;;;5018399;28;20124;-76
2022/05/24 01:41:52;;;;;;;5.43;4.40;;;13.10;99.90;;;;;;5018686;28;20462;-77
2022/05/24 01:44:24;;;;;;;6.55;4.78;;;13.10;99.90;;;;;;5019367;28;20049;-77
2022/05/24 01:46:50;;;;;;;7.75;5.50;;;12.90;99.90;;;;;;5034837;28;20041;-78
2022/05/24 01:49:25;;;;;;;7.32;5.82;;;13.00;99.90;;;;;;5018856;28;20050;-77
2022/05/24 01:52:21;;;;;;;9.15;5.63;;;13.00;99.90;;;;;;5034943;28;20057;-76
2022/05/24 01:54:52;;;;;;;7.57;5.55;;;13.00;99.90;;;;;;5035695;28;20135;-76
2022/05/24 01:57:30;;;;;;;8.00;5.57;;;12.90;99.90;;;;;;5036383;28;20173;-76
2022/05/24 01:59:57;;;;;;;7.10;5.53;;;12.90;99.90;;;;;;5035537;28;20132;-76
2022/05/24 02:02:23;;;;;;;7.32;5.65;;;12.90;99.90;;;;;;5018228;28;20053;-76
2022/05/24 02:04:49;;;;;;;10.30;6.13;;;12.90;99.90;;;;;;5034738;28;20042;-77
2022/05/24 02:07:22;;;;;;;8.88;6.80;;;12.90;99.90;;;;;;5034635;28;20041;-76
2022/05/24 02:09:49;;;;;;;;;;;12.90;99.90;;;;;;5035368;28;20049;-77
2022/05/24 02:12:21;;;;;;;9.40;6.30;;;12.90;99.90;;;;;;5051116;28;19925;-77
2022/05/24 02:15:13;;;;;;;10.90;6.45;;;12.90;99.90;;;;;;5034881;28;20410;-76
2022/05/24 02:18:03;;;;;;;10.30;5.68;;;12.90;99.90;;;;;;5034475;28;20045;-77
2022/05/24 02:20:40;;;;;;;11.57;6.35;;;12.90;99.90;;;;;;5034412;28;20052;-78
2022/05/24 02:23:07;;;;;;;9.38;5.32;;;12.90;99.90;;;;;;5018183;28;20140;-78
2022/05/24 02:25:38;;;;;;;8.63;5.78;;;12.90;99.90;;;;;;5001493;28;20049;-79
2022/05/24 02:28:08;;;;;;;10.18;7.03;;;13.00;99.90;;;;;;5035195;28;20386;-78
2022/05/24 02:30:35;;;;;;;7.38;5.75;;;13.00;99.90;;;;;;5033898;28;20056;-78
2022/05/24 02:33:01;;;;;;;8.35;5.25;;;13.00;99.90;;;;;;5033911;28;20146;-77
2022/05/24 02:35:27;;;;;;;9.07;5.13;;;13.10;99.90;;;;;;5033932;28;20084;-77
2022/05/24 02:37:53;;;;;;;8.88;5.90;;;13.00;99.90;;;;;;5017796;28;20049;-78
2022/05/24 02:43:03;;;;;;;7.18;5.20;;;13.10;99.90;;;;;;5034837;28;20409;-78
2022/05/24 02:45:29;;;;;;;8.98;5.53;;;13.00;99.90;;;;;;5034230;28;20362;-77
2022/05/24 02:47:55;;;;;;;8.52;5.55;;;13.10;99.90;;;;;;5017164;28;20132;-77
2022/05/24 02:50:21;;;;;;;6.65;5.05;;;13.10;99.90;;;;;;5033838;28;20049;-78
2022/05/24 02:52:47;;;;;;;9.68;5.50;;;13.10;99.90;;;;;;5033346;28;20057;-79
2022/05/24 02:55:13;;;;;;;9.18;6.20;;;13.10;99.90;;;;;;5017284;28;20053;-79
2022/05/24 02:57:40;;;;;;;8.63;5.93;;;13.10;99.90;;;;;;5017503;28;20055;-78
2022/05/24 03:00:09;;;;;;;11.55;6.50;;;13.10;99.90;;;;;;5033847;28;20046;-77
2022/05/24 03:02:35;;;;;;;11.98;7.35;;;13.10;99.90;;;;;;5033587;28;20041;-78
2022/05/24 03:05:01;;;;;;;9.90;7.03;;;13.20;99.90;;;;;;5017180;28;20041;-77
2022/05/24 03:10:11;;;;;;;9.00;6.63;;;13.20;99.90;;;;;;5020379;28;20135;-77
2022/05/24 03:15:21;;;;;;;11.52;7.85;;;13.20;99.90;;;;;;5033796;28;20053;-77
2022/05/24 03:17:47;;;;;;;10.50;7.28;;;13.30;99.90;;;;;;5033268;28;20124;-78
2022/05/24 03:20:12;;;;;;;12.27;7.97;;;13.40;99.90;;;;;;5000590;28;20045;-77
2022/05/24 03:22:38;;;;;;;12.70;8.35;;;13.40;99.90;;;;;;5033275;28;20042;-77
2022/05/24 03:25:04;;;;;;;10.80;8.73;;;13.40;99.90;;;;;;5033237;28;20052;-77
2022/05/24 03:27:30;;;;;;;13.50;8.65;;;13.40;99.90;;;;;;5016735;28;20489;-77
2022/05/24 03:29:56;;;;;;;12.93;8.38;;;13.40;99.90;;;;;;5033133;28;20095;-76
2022/05/24 03:32:22;;;;;;;11.52;8.50;;;13.60;99.90;;;;;;5016723;28;20049;-77
2022/05/24 03:34:48;;;;;;;13.32;9.55;;;13.60;99.90;;;;;;5016780;28;20060;-77
2022/05/24 03:37:13;;;;;;;13.02;9.07;;;13.40;99.90;;;;;;5016889;28;20041;-77
2022/05/24 03:39:39;;;;;;;13.23;10.05;;;13.50;99.90;;;;;;5016847;28;20365;-77
2022/05/24 03:42:06;;;;;;;15.75;10.65;;;13.50;99.90;;;;;;5033010;28;20381;-76
2022/05/24 03:44:31;;;;;;;17.13;10.82;;;13.50;99.90;;;;;;5033754;28;20126;-77
2022/05/24 03:46:58;;;;;;;17.15;12.18;;;13.50;99.90;;;;;;5015641;28;20429;-77
2022/05/24 03:49:24;;;;;;;18.10;11.63;;;13.50;99.90;;;;;;5032894;28;20044;-77
2022/05/24 03:51:50;;;;;;;17.67;12.32;;;13.50;99.90;;;;;;5033181;28;20135;-77
2022/05/24 03:54:16;;;;;;;16.90;12.15;;;13.60;99.90;;;;;;5032266;28;20123;-76
2022/05/24 03:59:27;;;;;;;19.15;12.93;;;13.60;99.90;;;;;;5035023;28;20049;-77
2022/05/24 04:01:53;;;;;;;21.05;14.55;;;13.80;99.90;;;;;;5016458;28;20116;-75
2022/05/24 04:04:18;;;;;;;21.70;14.52;;;13.60;99.90;;;;;;5016344;28;20045;-76
2022/05/24 04:06:44;;;;;;;20.88;14.32;;;13.60;99.90;;;;;;5032717;28;20133;-76
2022/05/24 04:09:10;;;;;;;22.58;16.08;;;13.60;99.90;;;;;;5016509;28;20044;-77
2022/05/24 04:11:35;;;;;;;22.33;15.60;;;13.70;99.90;;;;;;5032687;28;20103;-75
2022/05/24 04:14:01;;;;;;;23.92;15.40;;;13.70;99.90;;;;;;5000184;28;20080;-79
2022/05/24 04:16:27;;;;;;;25.65;16.13;;;13.70;99.90;;;;;;5033345;28;20044;-76
2022/05/24 04:18:53;;;;;;;23.23;16.30;;;13.70;99.90;;;;;;5015974;28;20107;-75
2022/05/24 04:21:18;;;;;;;26.63;17.38;;;13.80;99.90;;;;;;5033401;28;20038;-75
2022/05/24 04:23:44;;;;;;;24.67;17.08;;;13.70;99.90;;;;;;5032561;28;20381;-76
2022/05/24 04:26:10;;;;;;;24.27;17.00;;;13.70;99.90;;;;;;5033498;28;20048;-77
2022/05/24 04:28:35;;;;;;;25.30;17.08;;;13.80;99.90;;;;;;5032385;28;20139;-77
2022/05/24 04:31:01;;;;;;;23.80;16.27;;;13.80;99.90;;;;;;5032485;28;20038;-76
2022/05/24 04:33:27;;;;;;;25.02;17.00;;;13.80;99.90;;;;;;5032557;28;20132;-76
2022/05/24 04:35:53;;;;;;;26.70;17.40;;;13.90;99.90;;;;;;5032508;28;20397;-75
2022/05/24 04:38:18;;;;;;;24.50;17.20;;;13.90;99.90;;;;;;5016095;28;20183;-75
2022/05/24 04:43:28;;;;;;;25.35;16.88;;;13.90;99.90;;;;;;5033157;28;20060;-75
2022/05/24 04:45:55;;;;;;;23.35;16.88;;;13.90;99.90;;;;;;5015773;28;20049;-76
2022/05/24 04:48:21;;;;;;;25.75;17.17;;;14.00;99.90;;;;;;5032528;28;20050;-76
2022/05/24 04:50:55;;;;;;;22.40;16.15;;;14.00;99.90;;;;;;4999874;28;20060;-75
2022/05/24 04:53:21;;;;;;;24.67;16.60;;;14.00;99.90;;;;;;5015745;28;20061;-75
2022/05/24 04:55:49;;;;;;;24.15;16.02;;;14.00;99.90;;;;;;5015944;28;20037;-75
2022/05/24 04:58:18;;;;;;;26.38;16.20;;;14.00;99.90;;;;;;5017920;28;20033;-75
2022/05/24 05:00:46;;;;;;;25.08;16.85;;;14.10;99.90;;;;;;5003634;28;20130;-75
2022/05/24 05:03:14;;;;;;;27.08;17.00;;;14.00;99.90;;;;;;5035995;28;20053;-75
2022/05/24 05:05:41;;;;;;;25.42;16.73;;;14.30;99.90;;;;;;5035679;28;20446;-75
2022/05/24 05:08:07;;;;;;;21.63;16.10;;;14.10;99.90;;;;;;5036707;28;20084;-76
2022/05/24 05:10:34;;;;;;;24.33;16.40;;;14.10;99.90;;;;;;5019446;28;20045;-75
2022/05/24 05:13:02;;;;;;;21.95;16.83;;;14.10;99.90;;;;;;5003962;28;20450;-75
2022/05/24 05:15:28;;;;;;;24.88;16.52;;;14.30;99.90;;;;;;5035733;28;20136;-76
2022/05/24 05:18:13;;;;;;;20.75;15.07;;;14.20;99.90;;;;;;5019457;28;20128;-75
2022/05/24 05:20:41;;;;;;;22.33;15.45;;;14.20;99.90;;;;;;5019184;28;20485;-76
2022/05/24 05:23:09;;;;;;;21.85;15.40;;;14.10;99.90;;;;;;5035590;28;20033;-74
2022/05/24 05:25:35;;;;;;;19.73;14.60;;;14.20;99.90;;;;;;5035467;28;20037;-76
2022/05/24 05:28:00;;;;;;;21.73;15.25;;;14.20;99.90;;;;;;5034943;28;20503;-76
2022/05/24 05:33:11;;;;;;;20.48;14.20;;;14.30;99.90;;;;;;5038879;28;20053;-75
2022/05/24 05:35:36;;;;;;;20.58;14.93;;;14.30;99.90;;;;;;5035337;28;20037;-75
2022/05/24 05:38:02;;;;;;;24.25;14.98;;;14.30;99.90;;;;;;5018744;28;20099;-75
2022/05/24 05:40:28;;;;;;;17.35;13.15;;;14.30;99.90;;;;;;5036054;28;20041;-74
2022/05/24 05:42:54;;;;;;;20.73;14.05;;;14.40;99.90;;;;;;5035077;28;20046;-75
2022/05/24 05:45:19;;;;;;;20.48;14.13;;;14.40;99.90;;;;;;5035456;28;20339;-74
2022/05/24 05:47:45;;;;;;;17.75;13.57;;;14.40;99.90;;;;;;5018686;28;20068;-75
2022/05/24 05:50:11;;;;;;;19.77;13.88;;;14.40;99.90;;;;;;5018816;28;20041;-75
2022/05/24 05:52:37;;;;;;;17.83;12.70;;;14.40;99.90;;;;;;5002805;28;20045;-75
2022/05/24 05:55:03;;;;;;;21.13;13.63;;;14.40;99.90;;;;;;5034352;28;20176;-74
2022/05/24 05:57:29;;;;;;;16.95;12.55;;;14.40;99.90;;;;;;5034936;28;20045;-75
2022/05/24 05:59:54;;;;;;;18.90;12.88;;;14.40;99.90;;;;;;5002961;28;20235;-75
2022/05/24 06:02:20;;;;;;;21.38;13.63;;;14.50;99.90;;;;;;5035185;28;20049;-76
2022/05/24 06:04:46;;;;;;;23.17;14.85;;;14.50;99.90;;;;;;5034585;28;20041;-78
2022/05/24 06:07:11;;;;;;;23.70;15.50;;;14.50;99.90;;;;;;5018104;28;20061;-77
2022/05/24 06:09:37;;;;;;;25.13;16.50;;;14.40;99.90;;;;;;5017678;28;20056;-77
2022/05/24 06:12:03;;;;;;;28.30;17.20;;;14.40;99.90;;;;;;5034781;28;20046;-77
2022/05/24 06:14:29;;;;;;;26.98;17.65;;;14.40;99.90;;;;;;5018219;28;20054;-78
2022/05/24 06:16:55;;;;;;;23.35;16.83;;;14.40;99.90;;;;;;5018406;28;20111;-78
2022/05/24 06:19:21;;;;;;;30.58;17.40;;;14.40;99.90;;;;;;5018206;28;20052;-76
2022/05/24 06:21:47;;;;;;;32.67;20.60;;;14.40;99.90;;;;;;5034263;28;20400;-78
2022/05/24 06:24:14;;;;;;;29.40;19.75;;;14.40;99.90;;;;;;5034758;28;20050;-79
2022/05/24 06:26:40;;;;;;;30.35;19.42;;;14.40;99.90;;;;;;5018932;28;20049;-80
2022/05/24 06:29:06;;;;;;;29.45;19.42;;;14.40;99.90;;;;;;5034465;28;20053;-78
2022/05/24 06:31:32;;;;;;;27.65;18.70;;;14.40;99.90;;;;;;5002304;28;20056;-79
2022/05/24 06:33:58;;;;;;;28.10;18.13;;;14.40;99.90;;;;;;5034481;28;20080;-79
2022/05/24 06:36:24;;;;;;;29.00;17.17;;;14.40;99.90;;;;;;5017669;28;20084;-79
2022/05/24 06:38:49;;;;;;;25.75;16.67;;;14.50;99.90;;;;;;5034740;28;20046;-76
2022/05/24 06:41:15;;;;;;;23.30;15.35;;;14.60;99.90;;;;;;5034088;28;20060;-78
2022/05/24 06:43:41;;;;;;;20.23;15.10;;;14.50;99.90;;;;;;5017301;28;20038;-77
2022/05/24 06:46:09;;;;;;;23.25;14.48;;;14.60;99.90;;;;;;5034266;28;20057;-77
2022/05/24 06:48:37;;;;;;;21.40;14.50;;;14.60;99.90;;;;;;5033633;28;20041;-77
2022/05/24 06:51:19;;;;;;;21.00;13.25;;;14.60;99.90;;;;;;5033860;28;20115;-75
2022/05/24 06:53:46;;;;;;;19.33;13.13;;;14.60;99.90;;;;;;5034309;28;20136;-76
2022/05/24 06:56:12;;;;;;;18.60;12.70;;;14.60;99.90;;;;;;5035541;28;20049;-75
2022/05/24 06:58:38;;;;;;;21.02;12.73;;;14.50;99.90;;;;;;5017105;28;20095;-80
2022/05/24 07:03:50;;;;;;;19.05;12.00;;;14.50;99.90;;;;;;5033801;28;20049;-76
2022/05/24 07:06:16;;;;;;;17.48;11.90;;;14.50;99.90;;;;;;5033464;28;20045;-75
2022/05/24 07:08:46;;;;;;;20.92;12.25;;;14.40;99.90;;;;;;5017096;28;20511;-75
2022/05/24 07:11:14;;;;;;;17.35;11.15;;;14.50;99.90;;;;;;5034348;28;20049;-76
2022/05/24 07:13:39;;;;;;;17.20;11.30;;;14.40;99.90;;;;;;5034289;28;20088;-74
2022/05/24 07:16:07;;;;;;;17.75;11.55;;;14.40;99.90;;;;;;5033231;28;20103;-75
2022/05/24 07:18:33;;;;;;;15.20;10.48;;;14.30;99.90;;;;;;5033602;28;20079;-74
2022/05/24 07:20:59;;;;;;;16.95;12.05;;;14.30;99.90;;;;;;5016067;28;20045;-75
2022/05/24 07:23:24;;;;;;;17.92;11.05;;;14.30;99.90;;;;;;5039027;28;20107;-74
2022/05/24 07:25:51;;;;;;;16.65;11.70;;;14.30;99.90;;;;;;5017380;28;20049;-75
2022/05/24 07:28:19;;;;;;;19.30;11.23;;;14.30;99.90;;;;;;5033605;28;20096;-75
2022/05/24 07:30:47;;;;;;;16.95;9.65;;;14.30;99.90;;;;;;5033999;28;20131;-76
2022/05/24 07:33:13;;;;;;;20.02;11.15;;;14.30;99.90;;;;;;5034208;28;20409;-75
2022/05/24 07:35:40;;;;;;;16.45;10.13;;;14.30;99.90;;;;;;5034183;28;20048;-78
2022/05/24 07:38:07;;;;;;;13.70;9.27;;;14.40;99.90;;;;;;5033875;28;20459;-79
2022/05/24 07:46:08;;;;;;;14.43;9.77;;;14.40;99.90;;;;;;5033404;28;20071;-79
2022/05/24 07:48:34;;;;;;;14.57;9.02;;;14.40;99.90;;;;;;5033698;28;20474;-78
2022/05/24 07:51:01;;;;;;;11.60;9.02;;;14.50;99.90;;;;;;5016597;28;20037;-77
2022/05/24 07:53:27;;;;;;;15.15;10.32;;;14.60;99.90;;;;;;5032543;28;20076;-74
2022/05/24 07:55:57;;;;;;;11.98;9.25;;;14.60;99.90;;;;;;5032892;28;20482;-76
2022/05/24 07:58:23;;;;;;;11.48;8.50;;;14.60;99.90;;;;;;5016747;28;20386;-76
2022/05/24 08:00:50;;;;;;;11.25;8.82;;;14.70;99.90;;;;;;5033552;28;20088;-78
2022/05/24 08:03:15;;;;;;;14.00;8.90;;;14.70;99.90;;;;;;5032852;28;20050;-79
2022/05/24 08:05:41;;;;;;;12.27;8.68;;;14.60;99.90;;;;;;5033786;28;20072;-80
2022/05/24 08:08:08;;;;;;;15.75;8.23;;;14.60;99.90;;;;;;5033723;28;20129;-76
2022/05/24 08:10:36;;;;;;;11.07;8.07;;;14.70;99.90;;;;;;5033368;28;20555;-77
2022/05/24 08:13:07;;;;;;;12.88;8.02;;;14.60;99.90;;;;;;5032735;28;20046;-76
2022/05/24 08:15:33;;;;;;;15.10;8.20;;;14.60;99.90;;;;;;5033017;28;20393;-76
2022/05/24 08:17:59;;;;;;;12.40;8.27;;;14.70;99.90;;;;;;5016677;28;20046;-77
2022/05/24 08:20:27;;;;;;;12.80;8.15;;;14.70;99.90;;;;;;5017011;28;20041;-75
2022/05/24 08:22:53;;;;;;;13.80;8.32;;;14.80;99.90;;;;;;5033337;28;20042;-76
2022/05/24 08:25:18;;;;;;;14.13;8.85;;;14.80;99.90;;;;;;5033527;28;20184;-76
2022/05/24 08:27:44;;;;;;;14.35;8.70;;;14.80;99.90;;;;;;5031283;28;20053;-76
2022/05/24 08:30:13;;;;;;;14.32;7.97;;;14.80;99.90;;;;;;5032061;28;20041;-75
2022/05/24 08:32:40;;;;;;;10.43;7.88;;;14.70;99.90;;;;;;5033177;28;20362;-79
2022/05/24 08:35:09;;;;;;;13.90;8.23;;;14.90;99.90;;;;;;5036674;28;20095;-75
2022/05/24 08:37:35;;;;;;;15.07;8.98;;;14.80;99.90;;;;;;5035607;28;20116;-76
2022/05/24 08:40:01;;;;;;;11.38;8.50;;;14.70;99.90;;;;;;5018936;28;20049;-84
2022/05/24 08:42:39;;;;;;;12.20;8.57;;;14.80;99.90;;;;;;5035709;28;20482;-78
2022/05/24 08:51:13;;;;;;;12.85;8.80;;;14.90;99.90;;;;;;5035116;28;20057;-82
2022/05/24 08:53:45;;;;;;;10.68;8.07;;;15.00;99.90;;;;;;5018880;28;20053;-84
2022/05/24 08:56:24;;;;;;;12.85;8.73;;;15.00;99.90;;;;;;5035713;28;20046;-81
2022/05/24 08:58:55;;;;;;;13.60;8.18;;;15.00;99.90;;;;;;5036464;28;20139;-81
2022/05/24 09:01:25;;;;;;;12.15;8.38;;;15.00;99.90;;;;;;5036121;28;20041;-79
2022/05/24 09:03:51;;;;;;;11.55;8.25;;;15.00;99.90;;;;;;5019036;28;20388;-77
2022/05/24 09:07:02;;;;;;;10.40;7.97;;;15.00;99.90;;;;;;5018846;28;20056;-78
2022/05/24 09:09:40;;;;;;;10.23;7.88;;;15.10;99.90;;;;;;5025886;28;20088;-82
2022/05/24 09:12:20;;;;;;;10.77;7.85;;;15.20;99.90;;;;;;5018858;28;20473;-80
2022/05/24 09:15:09;;;;;;;11.88;7.45;;;15.30;99.90;;;;;;5035365;28;20052;-86
2022/05/24 09:17:43;;;;;;;13.43;7.78;;;15.40;99.90;;;;;;5036893;28;20049;-85
2022/05/24 09:20:38;;;;;;;7.85;7.00;;;15.50;99.90;;;;;;5035849;28;20092;-82
2022/05/24 09:23:18;;;;;;;12.15;7.32;;;15.50;99.90;;;;;;5033389;28;20054;-76
2022/05/24 09:26:06;;;;;;;12.23;7.70;;;15.60;99.90;;;;;;5035833;28;20042;-76
2022/05/24 09:28:51;;;;;;;7.30;6.28;;;15.70;99.90;;;;;;5034811;28;20087;-76
2022/05/24 09:31:30;;;;;;;9.50;7.18;;;15.80;99.90;;;;;;5018393;28;20053;-75
2022/05/24 09:34:19;;;;;;;9.75;6.93;;;16.20;99.90;;;;;;5035742;28;20100;-78
2022/05/24 09:36:56;;;;;;;9.73;6.47;;;16.10;99.90;;;;;;5031859;28;20097;-77
2022/05/24 09:39:59;;;;;;;7.40;5.10;;;16.30;99.90;;;;;;5035300;28;20041;-79
2022/05/24 09:42:29;;;;;;;8.68;5.40;;;16.40;99.90;;;;;;5018862;28;20158;-75
2022/05/24 09:45:11;;;;;;;6.32;4.00;;;16.40;99.90;;;;;;5032896;28;20052;-78
2022/05/24 09:47:53;;;;;;;6.30;4.78;;;16.40;99.90;;;;;;5017892;28;20428;-76
2022/05/24 09:50:30;;;;;;;5.55;4.78;;;16.30;99.90;;;;;;5035315;28;20398;-74
2022/05/24 09:53:20;;;;;;;6.25;4.38;;;16.20;99.90;;;;;;5017386;28;20054;-73
2022/05/24 09:55:50;;;;;;;7.00;4.43;;;16.10;99.90;;;;;;5031988;28;20439;-75
2022/05/24 09:58:26;;;;;;;5.43;4.05;;;16.10;99.90;;;;;;5033474;28;20042;-73
2022/05/24 10:01:13;;;;;;;7.18;4.88;;;16.00;99.90;;;;;;5034945;28;20049;-72
2022/05/24 10:03:40;;;;;;;4.57;3.78;;;16.00;99.90;;;;;;5017546;28;20049;-78
2022/05/24 10:06:11;;;;;;;5.63;4.60;;;16.30;99.90;;;;;;5034165;28;20049;-75
2022/05/24 10:08:50;;;;;;;2.80;2.20;;;16.10;99.90;;;;;;5033903;28;20053;-74
2022/05/24 10:11:24;;;;;;;0.57;0.40;;;16.10;99.90;;;;;;5017085;28;20053;-75
2022/05/24 10:14:23;;;;;;;0.30;0.28;;;15.90;99.90;;;;;;5035354;28;20049;-74
2022/05/24 10:17:31;;;;;;;0.30;0.20;;;15.50;99.90;;;;;;5033826;28;20042;-75
2022/05/24 10:20:23;;;;;;;0.82;0.22;;;15.10;99.90;;;;;;5026698;28;20045;-75
2022/05/24 10:23:02;;;;;;;1.15;0.30;;;14.70;99.90;;;;;;5031337;28;20076;-74
2022/05/24 10:25:48;;;;;;;3.58;0.70;;;14.10;99.90;;;;;;5035143;28;20053;-77
2022/05/24 10:28:31;;;;;;;5.63;1.00;;;14.10;99.90;;;;;;5035492;28;20103;-74
2022/05/24 10:31:14;;;;;;;4.20;0.82;;;13.80;99.90;;;;;;5033294;28;20137;-72
2022/05/24 10:40:23;;;;;;;2.05;0.90;;;13.10;99.90;;;;;;5032878;28;20045;-73
2022/05/24 10:43:27;;;;;;;2.40;1.20;;;13.20;99.90;;;;;;5034249;28;20355;-72
2022/05/24 10:46:01;;;;;;;2.50;1.77;;;13.30;99.90;;;;;;5033343;28;20061;-73
2022/05/24 10:48:43;;;;;;;4.82;2.22;;;13.70;99.90;;;;;;5036602;28;20081;-73
2022/05/24 10:51:23;;;;;;;4.18;2.50;;;14.00;99.90;;;;;;5033677;28;20041;-75
2022/05/24 10:53:53;;;;;;;4.50;2.70;;;14.20;99.90;;;;;;5033478;28;21198;-74
2022/05/24 10:56:29;;;;;;;3.33;2.58;;;14.10;99.90;;;;;;5034665;28;20374;-73
2022/05/24 10:59:07;;;;;;;11.43;3.33;;;14.00;99.90;;;;;;5035140;28;20347;-75
2022/05/24 11:01:50;;;;;;;5.20;2.92;;;14.00;99.90;;;;;;5033740;28;20114;-73
2022/05/24 11:05:00;;;;;;;5.63;3.45;;;13.90;99.90;;;;;;5034597;28;20453;-72
2022/05/24 11:07:30;;;;;;;0.40;0.30;;;13.80;99.90;;;;;;5032797;28;20413;-74
2022/05/24 11:10:06;;;;;;;0.88;0.30;;;13.70;99.90;;;;;;5032776;28;20038;-74
2022/05/24 11:12:40;;;;;;;0.85;0.20;;;13.20;99.90;;;;;;5033704;28;20056;-75
2022/05/24 11:15:16;;;;;;;0.10;0.10;;;12.90;99.90;;;;;;5033360;28;20090;-74
2022/05/24 11:17:42;;;;;;;0.25;0.20;;;12.70;99.90;;;;;;5032863;28;20064;-71
2022/05/24 11:20:10;;;;;;;1.60;0.38;;;12.80;99.90;;;;;;5033284;28;20049;-71
2022/05/24 11:22:42;;;;;;;0.50;0.30;;;12.50;99.90;;;;;;5033834;28;20067;-71
2022/05/24 11:25:33;;;;;;;1.10;0.55;;;12.20;99.90;;;;;;5034015;28;20045;-71
2022/05/24 11:28:05;;;;;;;2.47;0.60;;;12.40;99.90;;;;;;5016147;28;20391;-71
2022/05/24 11:30:30;;;;;;;4.68;1.20;;;12.20;99.90;;;;;;5033391;28;20085;-71
2022/05/24 11:33:05;;;;;;;6.65;2.10;;;12.40;99.90;;;;;;5016197;28;20049;-71
2022/05/24 11:35:36;;;;;;;3.25;1.40;;;12.50;99.90;;;;;;5034204;28;20049;-71
2022/05/24 11:38:14;;;;;;;2.90;2.28;;;12.70;99.90;;;;;;5033934;28;20069;-71
2022/05/24 11:40:54;;;;;;;3.30;1.23;;;12.80;99.90;;;;;;5034275;28;20049;-71
2022/05/24 11:43:36;;;;;;;4.40;1.63;;;12.70;99.90;;;;;;5032019;28;20128;-71
2022/05/24 11:46:33;;;;;;;6.15;3.13;;;13.10;99.90;;;;;;5031931;28;20049;-72
2022/05/24 11:49:04;;;;;;;10.90;7.05;;;13.20;99.90;;;;;;5030843;28;20088;-73
2022/05/24 11:51:46;;;;;;;5.03;3.30;;;13.40;99.90;;;;;;5032875;28;20052;-74
2022/05/24 11:54:21;;;;;;;2.50;1.70;;;13.60;99.90;;;;;;5032680;28;20152;-74
2022/05/24 11:57:02;;;;;;;7.25;2.47;;;13.40;99.90;;;;;;5032617;28;20052;-75
2022/05/24 11:59:40;;;;;;;2.40;1.88;;;13.70;99.90;;;;;;5032091;28;20041;-75
2022/05/24 12:02:31;;;;;;;4.32;2.03;;;13.70;99.90;;;;;;5033378;28;20178;-74
2022/05/24 12:08:26;;;;;;;1.80;1.60;;;14.00;99.90;;;;;;5031925;28;20206;-74
2022/05/24 12:11:05;;;;;;;2.92;1.30;;;14.20;99.90;;;;;;5032974;28;20095;-74
2022/05/24 12:13:38;;;;;;;2.92;1.23;;;14.40;99.90;;;;;;5033961;28;20049;-80
2022/05/24 12:16:49;;;;;;;2.60;1.15;;;14.60;99.90;;;;;;5033524;28;20049;-73
2022/05/24 12:19:48;;;;;;;2.17;1.15;;;14.70;99.90;;;;;;5020871;28;20095;-74
2022/05/24 12:22:18;;;;;;;3.33;1.10;;;14.80;99.90;;;;;;5028435;28;20532;-75
2022/05/24 12:24:52;;;;;;;1.73;1.00;;;14.80;99.90;;;;;;5032885;28;20050;-75
2022/05/24 12:27:47;;;;;;;3.45;1.00;;;14.80;99.90;;;;;;5032621;28;20120;-75
2022/05/24 12:30:21;;;;;;;1.73;0.95;;;15.10;99.90;;;;;;5032704;28;20085;-73
2022/05/24 12:32:48;;;;;;;2.85;1.20;;;14.80;99.90;;;;;;5031723;28;20050;-74
2022/05/24 12:35:16;;;;;;;1.70;0.90;;;14.80;99.90;;;;;;5033126;28;20049;-77
2022/05/24 12:37:52;;;;;;;2.75;1.30;;;14.60;99.90;;;;;;5015339;28;20049;-76
2022/05/24 12:40:18;;;;;;;2.65;1.13;;;14.60;99.90;;;;;;5033143;28;20114;-74
2022/05/24 12:42:49;;;;;;;1.88;0.85;;;14.60;99.90;;;;;;5032991;28;20050;-74
2022/05/24 12:45:21;;;;;;;0.93;0.70;;;14.70;99.90;;;;;;5033337;28;20058;-77
2022/05/24 12:47:52;;;;;;;1.60;1.00;;;14.80;99.90;;;;;;5016712;28;20048;-76
2022/05/24 12:50:38;;;;;;;1.40;0.88;;;14.80;99.90;;;;;;5032079;28;20052;-77
2022/05/24 12:53:09;;;;;;;1.35;0.70;;;15.00;99.90;;;;;;5033213;28;20041;-75
2022/05/24 12:55:55;;;;;;;0.77;0.70;;;14.90;99.90;;;;;;5015472;28;20488;-76
2022/05/24 12:58:39;;;;;;;1.92;0.70;;;15.00;99.90;;;;;;5032616;28;20477;-77
2022/05/24 13:01:17;;;;;;;0.73;0.40;;;15.10;99.90;;;;;;5032179;28;20049;-77
2022/05/24 13:03:52;;;;;;;0.50;0.32;;;15.00;99.90;;;;;;5032789;28;20544;-79
2022/05/24 13:06:24;;;;;;;1.20;0.30;;;15.00;99.90;;;;;;5015921;28;20096;-74
2022/05/24 13:09:15;;;;;;;1.88;0.50;;;15.00;99.90;;;;;;5033032;28;20042;-75
2022/05/24 13:11:42;;;;;;;1.50;0.50;;;14.90;99.90;;;;;;5033068;28;20049;-74
2022/05/24 13:14:15;;;;;;;0.28;0.15;;;14.70;99.90;;;;;;5031851;28;20100;-78
2022/05/24 13:16:41;;;;;;;0.50;0.20;;;14.50;99.90;;;;;;5033056;28;20045;-74
2022/05/24 13:19:10;;;;;;;0.35;0.25;;;14.10;99.90;;;;;;5033813;28;20111;-73
2022/05/24 13:21:36;;;;;;;0.60;0.10;;;14.00;99.90;;;;;;5036541;28;20121;-74
2022/05/24 13:24:15;;;;;;;0.75;0.20;;;13.80;99.90;;;;;;5019002;28;20088;-73
2022/05/24 13:27:00;;;;;;;0.20;0.20;;;13.70;99.90;;;;;;5034814;28;20482;-77
2022/05/24 13:29:29;;;;;;;0.47;0.10;;;13.70;99.90;;;;;;5036281;28;20037;-73
2022/05/24 13:34:59;;;;;;;0.82;0.32;;;13.80;99.90;;;;;;5035882;28;20053;-76
2022/05/24 13:37:45;;;;;;;1.13;0.30;;;13.90;99.90;;;;;;5035416;28;20393;-73
2022/05/24 13:40:12;;;;;;;0.65;0.38;;;14.10;99.90;;;;;;5035945;28;20128;-75
2022/05/24 13:42:53;;;;;;;1.20;0.35;;;14.10;99.90;;;;;;5036196;28;20556;-74
2022/05/24 13:45:20;;;;;;;0.90;0.47;;;14.20;99.90;;;;;;5035523;28;20049;-73
2022/05/24 13:47:56;;;;;;;0.65;0.40;;;14.50;99.90;;;;;;5035900;28;20052;-74
2022/05/24 13:50:41;;;;;;;1.90;0.40;;;14.60;99.90;;;;;;5035161;28;20056;-75
2022/05/24 13:53:46;;;;;;;2.65;0.40;;;14.70;99.90;;;;;;5036745;28;20429;-73